createdAt,value
2022-12-08T00:00:48.034Z,10.17
2022-12-08T00:03:15.112Z,10.16
2022-12-08T00:06:24.081Z,10.13
2022-12-08T00:09:09.464Z,10.12
2022-12-08T00:11:36.450Z,10.07
2022-12-08T00:14:03.427Z,10.06
2022-12-08T00:16:30.320Z,10.03
2022-12-08T00:18:57.532Z,9.83
2022-12-08T00:21:24.390Z,9.97
2022-12-08T00:23:51.261Z,9.97
2022-12-08T00:26:18.146Z,9.96
2022-12-08T00:28:45.021Z,9.95
2022-12-08T00:31:11.955Z,9.88
2022-12-08T00:33:38.975Z,9.83
2022-12-08T00:36:09.648Z,9.80
2022-12-08T00:38:36.997Z,9.53
2022-12-08T00:41:04.551Z,9.79
2022-12-08T00:43:31.420Z,9.79
2022-12-08T00:45:58.317Z,9.85
2022-12-08T00:48:25.347Z,9.83
2022-12-08T00:50:52.208Z,9.80
2022-12-08T00:53:19.208Z,9.76
2022-12-08T00:55:46.237Z,9.73
2022-12-08T00:58:13.129Z,9.71
2022-12-08T01:00:43.240Z,9.70
2022-12-08T01:03:11.172Z,9.67
2022-12-08T01:05:38.058Z,9.65
2022-12-08T01:08:08.832Z,9.63
2022-12-08T01:10:37.379Z,9.60
2022-12-08T01:13:04.353Z,9.59
2022-12-08T01:15:31.198Z,9.59
2022-12-08T01:17:58.086Z,9.43
2022-12-08T01:20:24.953Z,9.54
2022-12-08T01:22:51.915Z,9.58
2022-12-08T01:25:18.864Z,9.58
2022-12-08T01:27:45.751Z,9.57
2022-12-08T01:30:13.385Z,9.53
2022-12-08T01:32:40.389Z,9.55
2022-12-08T01:35:07.564Z,9.54
2022-12-08T01:37:34.462Z,9.52
2022-12-08T01:40:01.762Z,9.51
2022-12-08T01:42:30.039Z,9.49
2022-12-08T01:44:59.616Z,9.30
2022-12-08T01:47:30.522Z,9.21
2022-12-08T01:49:57.439Z,9.43
2022-12-08T01:52:31.532Z,9.41
2022-12-08T01:55:02.627Z,9.39
2022-12-08T01:57:33.398Z,9.37
2022-12-08T02:00:03.434Z,9.13
2022-12-08T02:02:39.999Z,9.25
2022-12-08T02:05:07.187Z,9.27
2022-12-08T02:07:34.079Z,9.23
2022-12-08T02:10:01.505Z,9.20
2022-12-08T02:12:28.777Z,9.19
2022-12-08T02:14:57.531Z,9.17
2022-12-08T02:17:26.173Z,9.13
2022-12-08T02:20:13.431Z,8.85
2022-12-08T02:23:15.426Z,8.86
2022-12-08T02:25:42.198Z,8.96
2022-12-08T02:28:38.017Z,8.92
2022-12-08T02:31:20.254Z,8.89
2022-12-08T02:34:02.528Z,8.85
2022-12-08T02:36:41.439Z,8.80
2022-12-08T02:39:33.049Z,8.86
2022-12-08T02:42:02.698Z,8.83
2022-12-08T02:44:48.279Z,8.78
2022-12-08T02:47:17.279Z,8.76
2022-12-08T02:49:44.220Z,8.73
2022-12-08T02:52:13.946Z,8.68
2022-12-08T02:54:42.419Z,8.73
2022-12-08T02:57:15.593Z,8.74
2022-12-08T03:00:18.650Z,8.72
2022-12-08T03:03:07.051Z,8.65
2022-12-08T03:05:45.928Z,8.79
2022-12-08T03:08:34.848Z,9.06
2022-12-08T03:11:15.253Z,9.42
2022-12-08T03:13:45.277Z,9.77
2022-12-08T03:16:15.333Z,10.11
2022-12-08T03:18:45.461Z,10.29
2022-12-08T03:21:13.487Z,10.59
2022-12-08T03:23:40.308Z,11.13
2022-12-08T03:26:36.245Z,11.45
2022-12-08T03:29:03.109Z,11.75
2022-12-08T03:31:31.700Z,12.10
2022-12-08T03:33:59.021Z,12.40
2022-12-08T03:36:26.083Z,12.67
2022-12-08T03:38:53.531Z,12.95
2022-12-08T03:41:21.589Z,13.22
2022-12-08T03:43:52.602Z,13.49
2022-12-08T03:48:47.203Z,14.00
2022-12-08T03:51:14.150Z,14.26
2022-12-08T03:53:41.024Z,14.49
2022-12-08T03:56:29.347Z,14.81
2022-12-08T03:58:56.342Z,15.04
2022-12-08T04:01:23.421Z,15.16
2022-12-08T04:03:50.426Z,15.50
2022-12-08T04:06:17.537Z,15.73
2022-12-08T04:08:44.424Z,15.97
2022-12-08T04:11:11.406Z,16.01
2022-12-08T04:13:39.178Z,16.40
2022-12-08T04:16:06.463Z,16.57
2022-12-08T04:18:33.982Z,16.68
2022-12-08T04:21:00.972Z,16.87
2022-12-08T04:23:27.803Z,17.18
2022-12-08T04:25:54.740Z,17.40
2022-12-08T04:28:21.894Z,17.60
2022-12-08T04:30:49.374Z,17.81
2022-12-08T04:33:16.591Z,17.86
2022-12-08T04:35:43.454Z,18.13
2022-12-08T04:38:10.478Z,18.34
2022-12-08T04:40:37.442Z,18.45
2022-12-08T04:43:04.509Z,18.55
2022-12-08T04:45:31.709Z,18.69
2022-12-08T04:48:00.840Z,18.92
2022-12-08T04:50:28.073Z,19.13
2022-12-08T04:52:55.250Z,19.27
2022-12-08T04:55:22.240Z,19.52
2022-12-08T04:57:49.098Z,19.70
2022-12-08T05:00:16.472Z,19.94
2022-12-08T05:02:43.509Z,20.10
2022-12-08T05:05:10.736Z,20.25
2022-12-08T05:07:37.920Z,20.39
2022-12-08T05:10:05.875Z,20.38
2022-12-08T05:12:33.245Z,20.70
2022-12-08T05:15:00.123Z,20.84
2022-12-08T05:17:27.029Z,20.99
2022-12-08T05:19:53.916Z,21.16
2022-12-08T05:22:20.805Z,21.13
2022-12-08T05:24:48.073Z,21.40
2022-12-08T05:27:15.314Z,21.43
2022-12-08T05:29:42.443Z,21.68
2022-12-08T05:32:09.558Z,21.80
2022-12-08T05:34:36.521Z,21.94
2022-12-08T05:37:03.639Z,22.04
2022-12-08T05:39:31.291Z,22.14
2022-12-08T05:41:59.736Z,22.24
2022-12-08T05:44:26.849Z,22.28
2022-12-08T05:46:53.854Z,22.42
2022-12-08T05:49:20.874Z,22.54
2022-12-08T05:51:47.793Z,22.62
2022-12-08T05:54:14.750Z,22.72
2022-12-08T05:56:41.689Z,22.91
2022-12-08T05:59:08.597Z,23.03
2022-12-08T06:01:35.794Z,22.94
2022-12-08T06:04:03.580Z,22.98
2022-12-08T06:06:30.734Z,22.85
2022-12-08T06:08:57.676Z,23.02
2022-12-08T06:11:28.998Z,23.23
2022-12-08T06:13:56.864Z,23.34
2022-12-08T06:16:27.021Z,23.43
2022-12-08T06:18:54.261Z,23.59
2022-12-08T06:21:21.162Z,23.73
2022-12-08T06:23:49.795Z,23.80
2022-12-08T06:26:17.206Z,23.88
2022-12-08T06:28:44.324Z,23.96
2022-12-08T06:31:19.017Z,23.98
2022-12-08T06:33:46.416Z,24.08
2022-12-08T06:36:14.330Z,24.03
2022-12-08T06:38:43.667Z,24.10
2022-12-08T06:41:10.907Z,24.27
2022-12-08T06:43:38.030Z,24.33
2022-12-08T06:46:09.550Z,24.22
2022-12-08T06:48:36.660Z,24.46
2022-12-08T06:51:15.236Z,24.60
2022-12-08T06:53:42.796Z,24.71
2022-12-08T06:56:09.843Z,24.80
2022-12-08T06:58:37.038Z,24.87
2022-12-08T07:01:11.185Z,24.98
2022-12-08T07:03:38.521Z,25.06
2022-12-08T07:06:05.983Z,24.98
2022-12-08T07:08:33.650Z,25.14
2022-12-08T07:11:00.704Z,25.06
2022-12-08T07:13:27.623Z,25.29
2022-12-08T07:15:54.583Z,25.35
2022-12-08T07:18:21.663Z,25.44
2022-12-08T07:20:48.683Z,25.52
2022-12-08T07:23:15.696Z,25.58
2022-12-08T07:25:42.748Z,25.65
2022-12-08T07:28:11.036Z,25.55
2022-12-08T07:30:39.066Z,25.83
2022-12-08T07:33:06.816Z,25.92
2022-12-08T07:35:35.144Z,25.85
2022-12-08T07:38:02.698Z,25.87
2022-12-08T07:40:29.734Z,26.07
2022-12-08T07:42:56.709Z,25.00
2022-12-08T07:45:28.335Z,24.53
2022-12-08T07:47:58.279Z,24.65
2022-12-08T07:50:25.221Z,24.83
2022-12-08T07:52:52.172Z,25.12
2022-12-08T07:55:19.132Z,24.93
2022-12-08T07:57:46.026Z,23.81
2022-12-08T08:00:13.545Z,23.71
2022-12-08T08:02:41.344Z,23.84
2022-12-08T08:05:09.033Z,24.18
2022-12-08T08:07:37.257Z,24.38
2022-12-08T08:10:05.577Z,24.32
2022-12-08T08:12:33.286Z,24.62
2022-12-08T08:15:01.024Z,24.61
2022-12-08T08:17:28.843Z,24.60
2022-12-08T08:19:55.904Z,24.75
2022-12-08T08:22:22.842Z,24.73
2022-12-08T08:24:49.930Z,24.73
2022-12-08T08:27:16.852Z,24.69
2022-12-08T08:29:43.788Z,24.78
2022-12-08T08:32:10.838Z,24.88
2022-12-08T08:34:38.671Z,24.87
2022-12-08T08:37:05.677Z,24.59
2022-12-08T08:39:32.814Z,24.32
2022-12-08T08:41:59.993Z,24.33
2022-12-08T08:44:26.904Z,24.22
2022-12-08T08:46:54.059Z,24.41
2022-12-08T08:49:21.419Z,24.09
2022-12-08T08:51:48.385Z,24.48
2022-12-08T08:54:15.376Z,24.51
2022-12-08T08:56:42.311Z,24.52
2022-12-08T08:59:09.670Z,24.55
2022-12-08T09:01:36.727Z,24.54
2022-12-08T09:04:03.813Z,24.55
2022-12-08T09:06:31.003Z,24.44
2022-12-08T09:08:58.001Z,24.60
2022-12-08T09:11:24.914Z,24.55
2022-12-08T09:13:52.045Z,24.33
2022-12-08T09:16:19.278Z,24.61
2022-12-08T09:18:46.396Z,24.56
2022-12-08T09:21:16.600Z,23.92
2022-12-08T09:23:43.684Z,23.58
2022-12-08T09:26:10.678Z,23.61
2022-12-08T09:28:38.091Z,23.72
2022-12-08T09:31:05.223Z,23.81
2022-12-08T09:33:33.659Z,23.89
2022-12-08T09:36:04.056Z,23.80
2022-12-08T09:38:31.038Z,23.99
2022-12-08T09:40:58.008Z,23.90
2022-12-08T09:43:33.818Z,24.05
2022-12-08T09:46:02.163Z,24.08
2022-12-08T09:48:34.406Z,23.99
2022-12-08T09:51:01.344Z,24.03
2022-12-08T09:53:48.291Z,23.97
2022-12-08T09:56:23.090Z,23.96
2022-12-08T09:58:55.514Z,23.93
2022-12-08T10:01:23.404Z,23.84
2022-12-08T10:03:50.489Z,23.95
2022-12-08T10:06:53.151Z,23.97
2022-12-08T10:09:45.679Z,23.96
2022-12-08T10:12:34.355Z,23.93
2022-12-08T10:15:28.903Z,23.90
2022-12-08T10:17:56.059Z,23.46
2022-12-08T10:20:35.224Z,22.59
2022-12-08T10:23:27.346Z,22.08
2022-12-08T10:26:00.445Z,22.15
2022-12-08T10:28:27.356Z,22.16
2022-12-08T10:30:54.349Z,22.49
2022-12-08T10:33:21.963Z,22.67
2022-12-08T10:35:59.404Z,22.45
2022-12-08T10:38:36.578Z,22.40
2022-12-08T10:41:09.514Z,22.55
2022-12-08T10:43:48.203Z,22.65
2022-12-08T10:46:28.291Z,22.78
2022-12-08T10:49:04.398Z,22.87
2022-12-08T10:51:39.603Z,22.81
2022-12-08T10:54:28.940Z,22.98
2022-12-08T10:56:56.834Z,23.03
2022-12-08T10:59:25.722Z,23.06
2022-12-08T11:01:54.604Z,22.81
2022-12-08T11:04:22.253Z,22.50
2022-12-08T11:06:49.790Z,22.47
2022-12-08T11:09:16.652Z,22.55
2022-12-08T11:11:53.315Z,22.61
2022-12-08T11:14:22.986Z,22.64
2022-12-08T11:17:10.665Z,22.70
2022-12-08T11:19:38.669Z,22.77
2022-12-08T11:22:26.718Z,22.82
2022-12-08T11:25:00.315Z,22.88
2022-12-08T11:27:27.304Z,22.92
2022-12-08T11:29:54.288Z,22.95
2022-12-08T11:32:21.222Z,22.95
2022-12-08T11:34:56.212Z,22.96
2022-12-08T11:37:48.933Z,22.97
2022-12-08T11:40:42.918Z,23.02
2022-12-08T11:43:21.481Z,23.11
2022-12-08T11:45:54.784Z,23.13
2022-12-08T11:48:36.457Z,23.06
2022-12-08T11:51:13.490Z,22.96
2022-12-08T11:53:49.328Z,22.89
2022-12-08T11:56:25.115Z,22.76
2022-12-08T11:58:57.539Z,22.87
2022-12-08T12:01:26.580Z,22.95
2022-12-08T12:04:18.224Z,22.98
2022-12-08T12:06:57.122Z,23.05
2022-12-08T12:09:41.948Z,23.13
2022-12-08T12:12:36.293Z,23.15
2022-12-08T12:15:51.464Z,23.16
2022-12-08T12:18:48.653Z,22.92
2022-12-08T12:21:52.996Z,23.21
2022-12-08T12:24:28.289Z,23.27
2022-12-08T12:27:22.279Z,23.31
2022-12-08T12:29:55.988Z,23.33
2022-12-08T12:32:23.325Z,23.23
2022-12-08T12:34:52.409Z,23.17
2022-12-08T12:37:21.738Z,23.31
2022-12-08T12:40:22.148Z,23.37
2022-12-08T12:42:51.902Z,23.38
2022-12-08T12:45:21.787Z,23.37
2022-12-08T12:47:56.408Z,23.38
2022-12-08T12:50:33.203Z,23.29
2022-12-08T12:53:06.874Z,23.20
2022-12-08T12:55:55.154Z,23.16
2022-12-08T12:58:32.257Z,23.14
2022-12-08T13:01:11.884Z,23.21
2022-12-08T13:04:05.920Z,23.29
2022-12-08T13:06:47.865Z,22.35
2022-12-08T13:09:23.251Z,21.89
2022-12-08T13:11:52.415Z,22.03
2022-12-08T13:14:32.651Z,22.19
2022-12-08T13:17:00.689Z,22.15
2022-12-08T13:19:30.400Z,22.41
2022-12-08T13:21:57.404Z,22.62
2022-12-08T13:24:24.317Z,22.87
2022-12-08T13:26:51.637Z,22.79
2022-12-08T13:29:23.018Z,22.75
2022-12-08T13:32:22.260Z,23.13
2022-12-08T13:34:55.211Z,23.15
2022-12-08T13:37:31.697Z,22.84
2022-12-08T13:40:04.356Z,22.64
2022-12-08T13:42:44.169Z,22.63
2022-12-08T13:48:42.334Z,22.44
2022-12-08T13:53:15.849Z,22.23
2022-12-08T13:54:56.361Z,22.51
2022-12-08T13:57:11.072Z,22.42
2022-12-08T13:59:43.307Z,22.37
2022-12-08T14:02:19.284Z,22.28
2022-12-08T14:05:16.769Z,22.18
2022-12-08T14:07:34.463Z,22.06
2022-12-08T14:10:03.629Z,21.95
2022-12-08T14:12:30.603Z,21.87
2022-12-08T14:15:04.072Z,21.62
2022-12-08T14:17:31.816Z,21.65
2022-12-08T14:20:02.587Z,21.54
2022-12-08T14:22:34.010Z,21.29
2022-12-08T14:25:01.458Z,21.30
2022-12-08T14:27:30.175Z,21.09
2022-12-08T14:29:58.645Z,20.96
2022-12-08T14:32:44.492Z,21.03
2022-12-08T14:35:12.606Z,20.90
2022-12-08T14:37:42.120Z,20.82
2022-12-08T14:40:22.716Z,20.73
2022-12-08T14:42:54.204Z,20.60
2022-12-08T14:45:21.465Z,20.33
2022-12-08T14:47:48.732Z,20.42
2022-12-08T14:50:34.159Z,20.31
2022-12-08T14:53:01.278Z,20.03
2022-12-08T14:55:33.644Z,19.95
2022-12-08T14:58:00.716Z,19.99
2022-12-08T15:00:27.903Z,19.94
2022-12-08T15:02:55.890Z,19.86
2022-12-08T15:05:22.860Z,19.78
2022-12-08T15:07:54.063Z,19.77
2022-12-08T15:10:24.817Z,19.69
2022-12-08T15:13:10.093Z,19.63
2022-12-08T15:15:50.461Z,19.54
2022-12-08T15:18:29.606Z,19.47
2022-12-08T15:21:01.272Z,19.36
2022-12-08T15:23:30.785Z,19.18
2022-12-08T15:25:58.022Z,19.11
2022-12-08T15:28:29.963Z,19.06
2022-12-08T15:30:58.038Z,18.96
2022-12-08T15:33:25.103Z,18.88
2022-12-08T15:35:52.113Z,18.83
2022-12-08T15:38:26.418Z,18.72
2022-12-08T15:40:53.577Z,18.66
2022-12-08T15:43:20.596Z,18.38
2022-12-08T15:45:57.956Z,18.50
2022-12-08T15:48:27.538Z,18.44
2022-12-08T15:50:54.615Z,18.35
2022-12-08T15:53:21.522Z,18.27
2022-12-08T15:56:03.872Z,17.98
2022-12-08T16:01:23.225Z,17.85
2022-12-08T16:07:19.792Z,17.65
2022-12-08T16:09:50.886Z,17.78
2022-12-08T16:13:48.054Z,17.54
2022-12-08T16:15:51.731Z,17.46
2022-12-08T16:18:25.635Z,17.49
2022-12-08T16:21:16.949Z,17.41
2022-12-08T16:23:44.285Z,17.34
2022-12-08T16:27:22.103Z,16.95
2022-12-08T16:29:08.737Z,17.19
2022-12-08T16:31:35.722Z,17.13
2022-12-08T16:34:02.699Z,16.90
2022-12-08T16:36:29.671Z,17.00
2022-12-08T16:38:56.566Z,16.82
2022-12-08T16:41:42.236Z,16.90
2022-12-08T16:44:09.779Z,16.83
2022-12-08T16:46:37.084Z,16.79
2022-12-08T16:49:04.610Z,16.56
2022-12-08T16:51:31.503Z,16.71
2022-12-08T16:53:58.690Z,16.67
2022-12-08T16:56:32.263Z,16.60
2022-12-08T16:58:59.861Z,16.33
2022-12-08T17:01:26.809Z,16.47
2022-12-08T17:04:29.356Z,16.43
2022-12-08T17:06:40.666Z,16.37
2022-12-08T17:09:07.525Z,16.35
2022-12-08T17:11:40.801Z,16.30
2022-12-08T17:14:09.831Z,16.22
2022-12-08T17:16:36.785Z,16.16
2022-12-08T17:19:03.777Z,16.09
2022-12-08T17:21:30.684Z,15.89
2022-12-08T17:23:57.545Z,16.01
2022-12-08T17:26:24.405Z,15.98
2022-12-08T17:29:00.535Z,15.92
2022-12-08T17:31:30.404Z,15.85
2022-12-08T17:34:01.690Z,15.81
2022-12-08T17:36:28.653Z,15.73
2022-12-08T17:38:55.953Z,15.49
2022-12-08T17:41:22.848Z,15.60
2022-12-08T17:43:49.742Z,15.62
2022-12-08T17:46:18.211Z,15.39
2022-12-08T17:48:45.237Z,15.47
2022-12-08T17:51:12.108Z,15.41
2022-12-08T17:53:40.744Z,15.36
2022-12-08T17:56:14.433Z,15.32
2022-12-08T17:58:41.308Z,15.25
2022-12-08T18:01:09.802Z,15.21
2022-12-08T18:03:37.075Z,15.02
2022-12-08T18:06:07.872Z,14.86
2022-12-08T18:08:35.005Z,15.02
2022-12-08T18:11:02.445Z,14.95
2022-12-08T18:13:29.341Z,14.89
2022-12-08T18:15:56.199Z,14.83
2022-12-08T18:18:23.139Z,14.77
2022-12-08T18:20:50.218Z,14.75
2022-12-08T18:23:17.711Z,14.67
2022-12-08T18:25:44.898Z,14.48
2022-12-08T18:28:11.849Z,14.61
2022-12-08T18:30:39.730Z,14.60
2022-12-08T18:33:07.130Z,14.48
2022-12-08T18:35:34.009Z,14.43
2022-12-08T18:38:00.840Z,14.44
2022-12-08T18:40:28.370Z,14.34
2022-12-08T18:42:55.201Z,14.33
2022-12-08T18:45:22.872Z,14.29
2022-12-08T18:47:50.520Z,14.25
2022-12-08T18:50:17.573Z,14.22
2022-12-08T18:52:45.244Z,14.21
2022-12-08T18:55:12.141Z,14.19
2022-12-08T18:57:39.671Z,14.15
2022-12-08T19:00:07.661Z,14.07
2022-12-08T19:02:36.184Z,14.14
2022-12-08T19:05:03.161Z,14.01
2022-12-08T19:07:30.116Z,13.96
2022-12-08T19:09:56.996Z,13.96
2022-12-08T19:12:23.878Z,13.93
2022-12-08T19:14:50.828Z,13.85
2022-12-08T19:17:17.723Z,13.79
2022-12-08T19:19:44.549Z,13.74
2022-12-08T19:22:12.362Z,13.70
2022-12-08T19:24:39.377Z,13.64
2022-12-08T19:27:06.400Z,13.63
2022-12-08T19:29:33.310Z,13.58
2022-12-08T19:32:00.464Z,13.52
2022-12-08T19:34:27.473Z,13.33
2022-12-08T19:36:54.428Z,13.39
2022-12-08T19:39:40.734Z,13.37
2022-12-08T19:42:37.371Z,13.34
2022-12-08T19:45:11.949Z,13.11
2022-12-08T19:47:39.274Z,13.27
2022-12-08T19:50:25.552Z,13.07
2022-12-08T19:52:52.537Z,13.29
2022-12-08T19:55:19.563Z,13.25
2022-12-08T19:57:46.540Z,13.18
2022-12-08T20:00:13.730Z,13.17
2022-12-08T20:02:40.795Z,12.93
2022-12-08T20:05:08.304Z,13.05
2022-12-08T20:07:35.260Z,13.03
2022-12-08T20:10:07.503Z,13.03
2022-12-08T20:12:34.672Z,13.04
2022-12-08T20:15:01.629Z,12.93
2022-12-08T20:17:28.533Z,13.04
2022-12-08T20:19:55.505Z,13.04
2022-12-08T20:22:22.569Z,12.97
2022-12-08T20:25:09.630Z,12.94
2022-12-08T20:27:36.364Z,12.90
2022-12-08T20:30:04.211Z,12.87
2022-12-08T20:32:31.205Z,12.83
2022-12-08T20:34:58.284Z,12.79
2022-12-08T20:37:25.245Z,12.75
2022-12-08T20:39:52.753Z,12.55
2022-12-08T20:42:20.346Z,12.65
2022-12-08T20:44:47.337Z,12.64
2022-12-08T20:47:14.334Z,12.66
2022-12-08T20:49:41.482Z,12.65
2022-12-08T20:52:08.837Z,12.63
2022-12-08T20:54:36.017Z,12.52
2022-12-08T20:57:03.033Z,12.29
2022-12-08T20:59:30.441Z,12.32
2022-12-08T21:01:57.618Z,12.38
2022-12-08T21:04:25.243Z,12.50
2022-12-08T21:06:52.515Z,12.43
2022-12-08T21:09:19.625Z,12.44
2022-12-08T21:11:46.872Z,12.23
2022-12-08T21:14:13.834Z,12.41
2022-12-08T21:16:41.052Z,12.38
2022-12-08T21:19:08.470Z,12.37
2022-12-08T21:21:35.517Z,12.36
2022-12-08T21:24:03.468Z,12.34
2022-12-08T21:26:30.637Z,12.29
2022-12-08T21:28:58.921Z,12.26
2022-12-08T21:31:27.043Z,12.30
2022-12-08T21:33:55.313Z,12.28
2022-12-08T21:36:22.499Z,12.26
2022-12-08T21:38:49.456Z,12.25
2022-12-08T21:41:37.367Z,12.24
2022-12-08T21:44:05.394Z,12.21
2022-12-08T21:46:32.609Z,12.18
2022-12-08T21:48:59.800Z,12.14
2022-12-08T21:51:26.878Z,12.11
2022-12-08T21:53:53.818Z,12.10
2022-12-08T21:56:20.782Z,12.07
2022-12-08T21:58:47.683Z,12.05
2022-12-08T22:01:14.847Z,12.02
2022-12-08T22:03:41.934Z,12.01
2022-12-08T22:06:11.176Z,11.83
2022-12-08T22:08:38.465Z,11.96
2022-12-08T22:11:05.597Z,11.93
2022-12-08T22:13:35.992Z,11.91
2022-12-08T22:16:04.441Z,11.89
2022-12-08T22:18:31.782Z,11.87
2022-12-08T22:20:58.832Z,11.84
2022-12-08T22:23:25.738Z,11.80
2022-12-08T22:25:59.649Z,11.64
2022-12-08T22:28:26.823Z,11.58
2022-12-08T22:30:53.819Z,11.54
2022-12-08T22:33:20.727Z,11.67
2022-12-08T22:36:06.355Z,11.66
2022-12-08T22:38:36.932Z,11.61
2022-12-08T22:41:07.376Z,11.60
2022-12-08T22:43:34.655Z,11.59
2022-12-08T22:46:01.659Z,11.57
2022-12-08T22:48:28.626Z,11.53
2022-12-08T22:51:01.707Z,11.51
2022-12-08T22:53:28.666Z,11.48
2022-12-08T22:55:55.496Z,11.46
2022-12-08T22:58:22.500Z,11.48
2022-12-08T23:00:49.344Z,11.24
2022-12-08T23:03:16.432Z,11.42
2022-12-08T23:05:43.745Z,11.39
2022-12-08T23:08:13.385Z,11.45
2022-12-08T23:10:40.436Z,11.43
2022-12-08T23:13:07.447Z,11.43
2022-12-08T23:15:34.309Z,11.42
2022-12-08T23:18:01.331Z,11.41
2022-12-08T23:20:28.322Z,11.38
2022-12-08T23:22:55.261Z,11.33
2022-12-08T23:25:22.206Z,11.32
2022-12-08T23:27:49.212Z,11.32
2022-12-08T23:30:16.394Z,11.29
2022-12-08T23:32:43.436Z,11.09
2022-12-08T23:35:10.533Z,11.24
2022-12-08T23:37:37.879Z,11.05
2022-12-08T23:40:05.981Z,11.22
2022-12-08T23:42:33.314Z,11.14
2022-12-08T23:45:00.352Z,11.07
2022-12-08T23:47:27.533Z,11.11
2022-12-08T23:49:54.711Z,11.11
2022-12-08T23:52:21.644Z,11.05
2022-12-08T23:54:50.400Z,11.04
2022-12-08T23:57:17.383Z,11.06
2022-12-08T23:59:44.577Z,11.03
